createdAt,value
2022-08-04T00:02:08.935Z,13.67
2022-08-04T00:04:45.316Z,12.77
2022-08-04T00:07:20.147Z,11.80
2022-08-04T00:10:09.399Z,12.47
2022-08-04T00:12:45.230Z,11.37
2022-08-04T00:15:16.998Z,11.40
2022-08-04T00:17:50.029Z,11.20
2022-08-04T00:20:20.767Z,12.47
2022-08-04T00:22:50.029Z,12.37
2022-08-04T00:25:18.130Z,10.43
2022-08-04T00:27:47.755Z,11.77
2022-08-04T00:30:16.043Z,11.50
2022-08-04T00:32:44.345Z,11.87
2022-08-04T00:35:15.131Z,9.97
2022-08-04T00:37:45.834Z,11.30
2022-08-04T00:40:41.546Z,10.27
2022-08-04T00:43:20.568Z,9.90
2022-08-04T00:46:23.873Z,10.40
2022-08-04T00:49:25.247Z,10.13
2022-08-04T00:52:31.855Z,9.27
2022-08-04T00:55:14.069Z,7.27
2022-08-04T00:58:05.814Z,6.70
2022-08-04T01:00:45.347Z,6.37
2022-08-04T01:03:25.145Z,6.67
2022-08-04T01:06:03.668Z,7.10
2022-08-04T01:08:47.303Z,7.10
2022-08-04T01:11:27.870Z,5.87
2022-08-04T01:14:05.659Z,6.23
2022-08-04T01:16:43.003Z,6.10
2022-08-04T01:19:35.427Z,6.13
2022-08-04T01:22:30.469Z,5.60
2022-08-04T01:25:16.611Z,5.50
2022-08-04T01:28:02.008Z,4.57
2022-08-04T01:30:33.929Z,5.10
2022-08-04T01:33:05.379Z,5.53
2022-08-04T01:35:46.464Z,4.70
2022-08-04T01:38:24.868Z,5.13
2022-08-04T01:40:55.006Z,5.30
2022-08-04T01:43:24.113Z,4.53
2022-08-04T01:45:59.141Z,3.97
2022-08-04T01:48:29.388Z,4.40
2022-08-04T01:50:59.555Z,3.70
2022-08-04T01:53:32.253Z,3.93
2022-08-04T01:56:02.133Z,3.63
2022-08-04T01:58:31.771Z,3.57
2022-08-04T02:01:05.210Z,3.57
2022-08-04T02:04:21.447Z,4.03
2022-08-04T02:06:33.562Z,3.63
2022-08-04T02:09:11.025Z,4.07
2022-08-04T02:11:42.652Z,3.80
2022-08-04T02:14:38.218Z,3.87
2022-08-04T02:17:12.027Z,3.90
2022-08-04T02:19:57.384Z,4.30
2022-08-04T02:22:28.187Z,4.70
2022-08-04T02:25:02.581Z,4.17
2022-08-04T02:28:00.424Z,5.17
2022-08-04T02:30:39.113Z,4.17
2022-08-04T02:33:10.516Z,4.73
2022-08-04T02:35:42.106Z,4.97
2022-08-04T02:38:25.461Z,4.60
2022-08-04T02:40:56.645Z,5.00
2022-08-04T02:43:51.265Z,5.23
2022-08-04T02:46:19.937Z,4.87
2022-08-04T02:48:50.889Z,5.40
2022-08-04T02:51:23.974Z,5.90
2022-08-04T02:53:55.474Z,5.50
2022-08-04T02:56:24.773Z,5.53
2022-08-04T02:58:57.585Z,5.50
2022-08-04T03:01:27.332Z,5.07
2022-08-04T03:04:24.301Z,5.30
2022-08-04T03:07:36.049Z,4.90
2022-08-04T03:10:32.238Z,4.63
2022-08-04T03:13:49.998Z,4.90
2022-08-04T03:16:47.926Z,4.27
2022-08-04T03:19:47.480Z,4.60
2022-08-04T03:23:11.950Z,4.60
2022-08-04T03:26:24.349Z,4.03
2022-08-04T03:29:35.875Z,4.13
2022-08-04T03:32:38.279Z,4.13
2022-08-04T03:35:58.349Z,3.90
2022-08-04T03:39:12.792Z,3.77
2022-08-04T03:42:04.022Z,3.93
2022-08-04T03:45:23.105Z,4.00
2022-08-04T03:48:36.753Z,3.80
2022-08-04T03:51:37.072Z,4.03
2022-08-04T03:54:32.449Z,3.37
2022-08-04T03:57:21.847Z,3.40
2022-08-04T04:00:07.620Z,3.40
2022-08-04T04:03:28.646Z,3.50
2022-08-04T04:06:36.655Z,3.67
2022-08-04T04:09:58.101Z,3.30
2022-08-04T04:13:14.738Z,3.20
2022-08-04T04:16:01.251Z,3.03
2022-08-04T04:18:43.449Z,3.40
2022-08-04T04:21:34.325Z,3.13
2022-08-04T04:24:17.800Z,3.23
2022-08-04T04:26:58.318Z,3.07
2022-08-04T04:29:54.635Z,3.10
2022-08-04T04:32:26.444Z,3.50
2022-08-04T04:35:19.838Z,3.67
2022-08-04T04:38:18.200Z,2.80
2022-08-04T04:40:57.860Z,3.17
2022-08-04T04:43:51.659Z,3.37
2022-08-04T04:46:31.961Z,3.40
2022-08-04T04:49:06.790Z,3.27
2022-08-04T04:51:43.297Z,3.10
2022-08-04T04:54:25.087Z,2.87
2022-08-04T04:57:04.339Z,2.93
2022-08-04T04:59:35.747Z,2.67
2022-08-04T05:02:36.539Z,2.57
2022-08-04T05:05:28.060Z,2.63
2022-08-04T05:08:43.606Z,2.60
2022-08-04T05:11:42.830Z,2.70
2022-08-04T05:14:36.653Z,2.70
2022-08-04T05:17:16.579Z,2.60
2022-08-04T05:19:55.146Z,2.40
2022-08-04T05:22:26.276Z,2.33
2022-08-04T05:25:03.154Z,2.33
2022-08-04T05:27:40.185Z,2.70
2022-08-04T05:30:11.833Z,2.33
2022-08-04T05:32:47.643Z,2.50
2022-08-04T05:35:53.006Z,2.40
2022-08-04T05:38:15.652Z,2.50
2022-08-04T05:40:44.746Z,2.73
2022-08-04T05:43:15.330Z,2.60
2022-08-04T05:45:48.122Z,2.97
2022-08-04T05:48:16.491Z,2.37
2022-08-04T05:50:46.155Z,2.40
2022-08-04T05:53:16.686Z,2.27
2022-08-04T05:55:48.746Z,2.60
2022-08-04T05:58:31.399Z,2.70
2022-08-04T06:01:01.879Z,2.77
2022-08-04T06:03:31.919Z,2.33
2022-08-04T06:06:01.026Z,2.40
2022-08-04T06:08:31.389Z,2.20
2022-08-04T06:11:04.986Z,2.50
2022-08-04T06:13:49.530Z,2.47
2022-08-04T06:16:29.193Z,2.20
2022-08-04T06:20:02.378Z,2.33
2022-08-04T06:21:51.941Z,2.70
2022-08-04T06:24:23.430Z,2.63
2022-08-04T06:26:53.273Z,2.50
2022-08-04T06:29:28.294Z,2.50
2022-08-04T06:32:27.516Z,2.37
2022-08-04T06:34:51.754Z,2.67
2022-08-04T06:37:24.076Z,2.20
2022-08-04T06:40:15.524Z,3.27
2022-08-04T06:42:59.377Z,2.60
2022-08-04T06:45:29.635Z,2.27
2022-08-04T06:47:58.267Z,2.33
2022-08-04T06:51:30.429Z,2.37
2022-08-04T06:53:15.878Z,2.30
2022-08-04T06:55:47.621Z,2.53
2022-08-04T06:58:17.435Z,2.23
2022-08-04T07:00:48.471Z,2.40
2022-08-04T07:03:19.068Z,2.67
2022-08-04T07:05:48.590Z,2.00
2022-08-04T07:08:17.394Z,2.40
2022-08-04T07:10:46.415Z,2.33
2022-08-04T07:13:15.287Z,2.10
2022-08-04T07:15:47.663Z,2.47
2022-08-04T07:18:16.314Z,2.80
2022-08-04T07:20:45.475Z,2.37
2022-08-04T07:23:17.575Z,2.87
2022-08-04T07:26:00.615Z,2.50
2022-08-04T07:28:40.257Z,2.77
2022-08-04T07:31:31.966Z,2.33
2022-08-04T07:34:17.707Z,2.40
2022-08-04T07:36:53.071Z,2.40
2022-08-04T07:39:28.507Z,2.20
2022-08-04T07:42:01.450Z,2.30
2022-08-04T07:44:30.525Z,1.90
2022-08-04T07:47:01.143Z,2.30
2022-08-04T07:49:54.684Z,2.10
2022-08-04T07:52:18.205Z,2.47
2022-08-04T07:54:46.642Z,1.93
2022-08-04T07:57:19.449Z,2.47
2022-08-04T08:00:03.811Z,2.43
2022-08-04T08:02:41.964Z,2.53
2022-08-04T08:05:12.094Z,2.17
2022-08-04T08:07:50.839Z,2.53
2022-08-04T08:10:23.197Z,1.93
2022-08-04T08:12:52.672Z,1.87
2022-08-04T08:15:21.887Z,2.10
2022-08-04T08:17:59.513Z,2.30
2022-08-04T08:20:30.529Z,2.30
2022-08-04T08:22:59.375Z,2.00
2022-08-04T08:25:27.671Z,1.83
2022-08-04T08:27:56.715Z,2.03
2022-08-04T08:30:31.848Z,2.33
2022-08-04T08:33:06.123Z,2.10
2022-08-04T08:35:53.255Z,1.90
2022-08-04T08:38:35.454Z,2.10
2022-08-04T08:41:31.682Z,2.42
2022-08-04T08:44:19.105Z,1.90
2022-08-04T08:47:21.011Z,1.90
2022-08-04T08:50:06.388Z,2.07
2022-08-04T08:53:02.684Z,2.03
2022-08-04T08:55:46.948Z,2.00
2022-08-04T08:58:33.908Z,1.93
2022-08-04T09:01:13.345Z,2.00
2022-08-04T09:04:06.309Z,2.17
2022-08-04T09:06:55.022Z,2.07
2022-08-04T09:09:44.781Z,2.20
2022-08-04T09:12:25.534Z,1.90
2022-08-04T09:15:00.734Z,2.10
2022-08-04T09:17:34.504Z,1.77
2022-08-04T09:20:06.982Z,1.80
2022-08-04T09:22:42.113Z,2.03
2022-08-04T09:25:14.597Z,1.97
2022-08-04T09:27:51.208Z,1.70
2022-08-04T09:30:22.378Z,1.97
2022-08-04T09:33:03.708Z,1.80
2022-08-04T09:35:41.112Z,1.90
2022-08-04T09:38:20.469Z,1.70
2022-08-04T09:40:57.250Z,1.87
2022-08-04T09:43:59.062Z,2.00
2022-08-04T09:46:46.254Z,1.87
2022-08-04T09:49:18.790Z,1.90
2022-08-04T09:52:07.023Z,2.07
2022-08-04T09:54:50.221Z,1.90
2022-08-04T09:57:31.180Z,2.00
2022-08-04T10:00:04.052Z,1.63
2022-08-04T10:02:43.709Z,1.90
2022-08-04T10:05:15.294Z,2.00
2022-08-04T10:08:16.259Z,1.73
2022-08-04T10:10:57.610Z,1.93
2022-08-04T10:13:40.406Z,2.00
2022-08-04T10:16:33.991Z,1.70
2022-08-04T10:19:10.664Z,2.00
2022-08-04T10:21:59.744Z,1.80
2022-08-04T10:24:53.896Z,1.87
2022-08-04T10:27:29.629Z,1.80
2022-08-04T10:30:10.194Z,1.67
2022-08-04T10:32:46.544Z,2.20
2022-08-04T10:35:16.285Z,1.80
2022-08-04T10:38:00.077Z,1.90
2022-08-04T10:40:38.383Z,2.57
2022-08-04T10:43:22.128Z,1.70
2022-08-04T10:45:58.129Z,1.93
2022-08-04T10:48:37.341Z,1.87
2022-08-04T10:51:20.067Z,1.87
2022-08-04T10:53:53.910Z,1.90
2022-08-04T10:56:33.306Z,1.97
2022-08-04T10:59:08.150Z,1.90
2022-08-04T11:01:59.388Z,2.23
2022-08-04T11:04:48.566Z,2.30
2022-08-04T11:07:18.764Z,1.97
2022-08-04T11:09:47.721Z,2.40
2022-08-04T11:12:18.949Z,2.30
2022-08-04T11:14:54.967Z,1.83
2022-08-04T11:17:27.730Z,2.00
2022-08-04T11:20:34.781Z,2.20
2022-08-04T11:22:59.646Z,1.97
2022-08-04T11:25:33.718Z,2.40
2022-08-04T11:28:07.602Z,2.10
2022-08-04T11:30:42.322Z,2.20
2022-08-04T11:33:22.054Z,2.03
2022-08-04T11:35:58.879Z,2.20
2022-08-04T11:38:33.867Z,2.10
2022-08-04T11:41:10.872Z,1.97
2022-08-04T11:44:00.910Z,2.20
2022-08-04T11:46:38.175Z,2.17
2022-08-04T11:49:09.748Z,1.90
2022-08-04T11:51:38.097Z,2.00
2022-08-04T11:54:06.607Z,2.20
2022-08-04T11:56:36.581Z,2.13
2022-08-04T11:59:08.552Z,1.70
2022-08-04T12:01:48.867Z,1.90
2022-08-04T12:04:26.738Z,2.17
2022-08-04T12:07:28.493Z,2.10
2022-08-04T12:09:57.403Z,2.17
2022-08-04T12:12:33.510Z,2.20
2022-08-04T12:15:15.491Z,2.27
2022-08-04T12:17:53.926Z,2.30
2022-08-04T12:20:31.607Z,2.23
2022-08-04T12:23:14.986Z,2.10
2022-08-04T12:25:48.027Z,2.20
2022-08-04T12:28:23.387Z,2.07
2022-08-04T12:31:03.279Z,2.10
2022-08-04T12:34:04.594Z,1.93
2022-08-04T12:36:36.757Z,2.00
2022-08-04T12:39:11.440Z,1.73
2022-08-04T12:41:43.202Z,2.10
2022-08-04T12:44:33.297Z,2.00
2022-08-04T12:47:26.894Z,2.10
2022-08-04T12:50:01.436Z,2.10
2022-08-04T12:53:00.347Z,2.20
2022-08-04T12:55:23.872Z,1.80
2022-08-04T12:57:53.355Z,1.87
2022-08-04T13:00:35.260Z,2.00
2022-08-04T13:03:09.614Z,2.00
2022-08-04T13:05:41.885Z,1.80
2022-08-04T13:08:11.314Z,2.07
2022-08-04T13:10:42.417Z,1.70
2022-08-04T13:13:17.113Z,1.70
2022-08-04T13:15:56.853Z,2.23
2022-08-04T13:18:30.023Z,1.90
2022-08-04T13:21:20.211Z,2.10
2022-08-04T13:26:54.905Z,1.70
2022-08-04T13:29:59.770Z,2.00
2022-08-04T13:30:25.427Z,1.90
2022-08-04T13:32:18.369Z,2.10
2022-08-04T13:34:49.438Z,2.10
2022-08-04T13:37:25.918Z,2.10
2022-08-04T13:39:56.531Z,2.23
2022-08-04T13:42:27.376Z,1.93
2022-08-04T13:44:58.732Z,2.07
2022-08-04T13:47:30.269Z,1.97
2022-08-04T13:50:12.148Z,2.03
2022-08-04T13:52:43.589Z,3.10
2022-08-04T13:55:24.509Z,3.23
2022-08-04T13:57:57.326Z,3.27
2022-08-04T14:00:30.209Z,3.80
2022-08-04T14:03:02.507Z,4.30
2022-08-04T14:05:36.939Z,3.70
2022-08-04T14:08:29.048Z,4.00
2022-08-04T14:11:00.882Z,3.87
2022-08-04T14:13:41.172Z,3.90
2022-08-04T14:16:18.137Z,3.83
2022-08-04T14:18:46.686Z,3.60
2022-08-04T14:21:16.343Z,4.23
2022-08-04T14:23:51.642Z,3.90
2022-08-04T14:26:32.847Z,3.70
2022-08-04T14:29:28.283Z,3.93
2022-08-04T14:32:06.026Z,4.07
2022-08-04T14:34:44.743Z,5.00
2022-08-04T14:37:19.415Z,4.43
2022-08-04T14:40:18.471Z,4.50
2022-08-04T14:42:43.223Z,4.60
2022-08-04T14:45:12.091Z,4.80
2022-08-04T14:47:51.922Z,3.90
2022-08-04T14:50:22.765Z,4.87
2022-08-04T14:52:50.949Z,4.73
2022-08-04T14:55:25.251Z,4.97
2022-08-04T14:58:35.689Z,4.90
2022-08-04T15:00:42.248Z,4.30
2022-08-04T15:03:11.490Z,4.57
2022-08-04T15:05:54.797Z,4.20
2022-08-04T15:08:31.937Z,4.83
2022-08-04T15:11:03.153Z,4.73
2022-08-04T15:13:32.307Z,4.83
2022-08-04T15:16:06.677Z,4.33
2022-08-04T15:18:38.986Z,3.87
2022-08-04T15:21:08.654Z,2.80
2022-08-04T15:23:38.775Z,2.63
2022-08-04T15:26:13.803Z,2.77
2022-08-04T15:28:45.765Z,2.60
2022-08-04T15:32:06.494Z,2.50
2022-08-04T15:34:05.125Z,2.23
2022-08-04T15:36:38.961Z,2.50
2022-08-04T15:39:17.756Z,2.20
2022-08-04T15:41:57.615Z,2.27
2022-08-04T15:44:47.960Z,2.13
2022-08-04T15:47:16.927Z,2.10
2022-08-04T15:49:45.467Z,2.37
2022-08-04T15:52:18.300Z,2.53
2022-08-04T15:54:51.945Z,2.63
2022-08-04T15:57:57.281Z,2.30
2022-08-04T16:00:25.501Z,2.00
2022-08-04T16:02:53.705Z,1.93
2022-08-04T16:05:39.243Z,2.57
2022-08-04T16:08:17.980Z,2.30
2022-08-04T16:10:49.132Z,2.10
2022-08-04T16:13:20.752Z,2.17
2022-08-04T16:15:51.787Z,2.20
2022-08-04T16:18:39.242Z,2.37
2022-08-04T16:21:18.613Z,2.40
2022-08-04T16:24:06.112Z,2.13
2022-08-04T16:26:56.282Z,2.30
2022-08-04T16:29:37.998Z,2.03
2022-08-04T16:32:26.196Z,2.27
2022-08-04T16:34:59.617Z,2.17
2022-08-04T16:37:38.716Z,2.23
2022-08-04T16:40:36.576Z,2.90
2022-08-04T16:43:09.534Z,2.60
2022-08-04T16:45:44.389Z,2.80
2022-08-04T16:48:13.923Z,2.47
2022-08-04T16:51:04.938Z,2.80
2022-08-04T16:53:53.282Z,2.67
2022-08-04T16:56:40.126Z,2.97
2022-08-04T16:59:10.196Z,3.50
2022-08-04T17:01:48.500Z,2.90
2022-08-04T17:04:17.478Z,3.93
2022-08-04T17:06:47.514Z,3.70
2022-08-04T17:09:17.996Z,3.50
2022-08-04T17:11:48.615Z,3.43
2022-08-04T17:14:23.529Z,3.60
2022-08-04T17:16:54.100Z,4.20
2022-08-04T17:19:26.008Z,4.10
2022-08-04T17:22:02.884Z,4.30
2022-08-04T17:24:34.926Z,4.40
2022-08-04T17:27:04.320Z,4.50
2022-08-04T17:29:48.809Z,4.37
2022-08-04T17:32:21.625Z,4.63
2022-08-04T17:34:50.898Z,5.50
2022-08-04T17:37:38.289Z,4.57
2022-08-04T17:40:10.672Z,5.10
2022-08-04T17:42:41.435Z,4.60
2022-08-04T17:45:49.145Z,4.53
2022-08-04T17:48:03.556Z,5.10
2022-08-04T17:50:34.811Z,4.97
2022-08-04T17:55:54.210Z,3.80
2022-08-04T17:58:26.865Z,4.20
2022-08-04T18:01:22.995Z,4.13
2022-08-04T18:03:53.655Z,3.57
2022-08-04T18:06:25.634Z,4.13
2022-08-04T18:11:53.911Z,2.63
2022-08-04T18:14:25.926Z,3.47
2022-08-04T18:16:57.353Z,2.57
2022-08-04T18:19:31.580Z,2.17
2022-08-04T18:24:56.008Z,2.40
2022-08-04T18:27:29.828Z,2.10
2022-08-04T18:30:34.056Z,2.40
2022-08-04T18:33:16.683Z,2.10
2022-08-04T18:36:37.091Z,2.10
2022-08-04T18:38:25.375Z,1.80
2022-08-04T18:40:54.703Z,2.00
2022-08-04T18:43:28.174Z,1.90
2022-08-04T18:45:59.633Z,2.20
2022-08-04T18:48:36.214Z,2.23
2022-08-04T18:51:10.209Z,2.27
2022-08-04T18:53:55.087Z,2.10
2022-08-04T18:56:31.585Z,2.43
2022-08-04T18:59:01.681Z,2.23
2022-08-04T19:02:17.299Z,3.00
2022-08-04T19:07:33.815Z,3.00
2022-08-04T19:10:01.801Z,3.30
2022-08-04T19:12:30.091Z,3.17
2022-08-04T19:15:10.813Z,3.90
2022-08-04T19:17:53.583Z,3.60
2022-08-04T19:20:27.730Z,3.60
2022-08-04T19:24:11.230Z,4.40
2022-08-04T19:26:01.510Z,3.43
2022-08-04T19:28:35.247Z,4.37
2022-08-04T19:31:04.903Z,3.70
2022-08-04T19:33:58.390Z,3.97
2022-08-04T19:36:27.558Z,4.50
2022-08-04T19:38:58.548Z,5.63
2022-08-04T19:41:27.126Z,5.13
2022-08-04T19:43:55.562Z,5.83
2022-08-04T19:46:25.635Z,5.53
2022-08-04T19:49:00.410Z,6.07
2022-08-04T19:51:30.306Z,5.80
2022-08-04T19:54:03.984Z,6.70
2022-08-04T19:56:40.543Z,6.80
2022-08-04T19:59:09.976Z,6.40
2022-08-04T20:01:44.880Z,6.80
2022-08-04T20:04:14.012Z,6.57
2022-08-04T20:06:42.769Z,7.23
2022-08-04T20:09:25.688Z,7.00
2022-08-04T20:11:55.793Z,6.73
2022-08-04T20:14:32.115Z,6.23
2022-08-04T20:17:01.880Z,6.00
2022-08-04T20:19:30.341Z,6.87
2022-08-04T20:22:00.063Z,6.03
2022-08-04T20:24:39.236Z,8.17
2022-08-04T20:27:15.037Z,6.13
2022-08-04T20:29:48.625Z,6.77
2022-08-04T20:32:20.120Z,7.10
2022-08-04T20:34:51.348Z,7.00
2022-08-04T20:37:20.703Z,6.20
2022-08-04T20:39:55.248Z,6.13
2022-08-04T20:42:27.153Z,6.73
2022-08-04T20:45:02.095Z,7.40
2022-08-04T20:47:35.731Z,7.03
2022-08-04T20:50:09.096Z,6.67
2022-08-04T20:52:38.001Z,6.20
2022-08-04T20:55:09.151Z,6.43
2022-08-04T20:57:47.482Z,7.90
2022-08-04T21:00:16.549Z,6.33
2022-08-04T21:02:44.844Z,6.77
2022-08-04T21:05:13.533Z,7.57
2022-08-04T21:07:43.774Z,6.67
2022-08-04T21:10:31.783Z,6.67
2022-08-04T21:12:59.921Z,7.57
2022-08-04T21:15:59.083Z,6.50
2022-08-04T21:18:16.829Z,6.33
2022-08-04T21:20:48.325Z,6.50
2022-08-04T21:23:16.770Z,7.20
2022-08-04T21:25:50.798Z,6.50
2022-08-04T21:28:20.389Z,6.57
2022-08-04T21:30:52.664Z,6.60
2022-08-04T21:33:23.453Z,6.23
2022-08-04T21:35:54.245Z,6.27
2022-08-04T21:38:25.108Z,6.60
2022-08-04T21:41:01.831Z,6.53
2022-08-04T21:46:19.361Z,6.07
2022-08-04T21:48:48.776Z,6.10
2022-08-04T21:51:59.017Z,6.60
2022-08-04T21:54:08.922Z,7.30
2022-08-04T21:56:38.715Z,6.60
2022-08-04T21:59:14.488Z,6.10
2022-08-04T22:01:51.058Z,5.50
2022-08-04T22:04:22.746Z,6.37
2022-08-04T22:06:52.599Z,6.83
2022-08-04T22:09:22.326Z,6.47
2022-08-04T22:11:52.414Z,7.37
2022-08-04T22:14:29.224Z,6.27
2022-08-04T22:17:02.118Z,6.43
2022-08-04T22:19:50.286Z,6.13
2022-08-04T22:22:25.684Z,6.43
2022-08-04T22:24:58.776Z,7.83
2022-08-04T22:27:47.410Z,7.13
2022-08-04T22:30:23.526Z,6.10
2022-08-04T22:32:51.771Z,7.03
2022-08-04T22:35:44.087Z,6.40
2022-08-04T22:38:24.282Z,4.97
2022-08-04T22:41:01.849Z,5.30
2022-08-04T22:43:34.338Z,5.60
2022-08-04T22:46:05.366Z,5.33
2022-08-04T22:48:36.212Z,6.13
2022-08-04T22:51:05.979Z,5.30
2022-08-04T22:53:37.560Z,5.93
2022-08-04T22:56:10.574Z,5.30
2022-08-04T22:58:45.190Z,4.80
2022-08-04T23:01:15.018Z,6.43
2022-08-04T23:03:51.020Z,5.23
2022-08-04T23:06:25.268Z,5.13
2022-08-04T23:08:54.251Z,5.67
2022-08-04T23:11:22.409Z,4.93
2022-08-04T23:13:51.857Z,4.60
2022-08-04T23:16:21.241Z,4.87
2022-08-04T23:18:52.834Z,4.37
2022-08-04T23:21:24.854Z,3.97
2022-08-04T23:24:00.840Z,3.90
2022-08-04T23:26:31.443Z,4.03
2022-08-04T23:29:01.079Z,3.90
2022-08-04T23:31:41.195Z,4.03
2022-08-04T23:34:20.913Z,4.23
2022-08-04T23:36:50.296Z,3.93
2022-08-04T23:39:18.614Z,4.30
2022-08-04T23:41:53.915Z,3.70
2022-08-04T23:44:27.150Z,3.73
2022-08-04T23:47:00.534Z,4.13
2022-08-04T23:49:43.648Z,4.00
2022-08-04T23:52:23.458Z,4.30
2022-08-04T23:54:58.726Z,4.10
2022-08-04T23:58:02.403Z,4.27
